createdAt,value
2016-08-28T00:01:35.615Z,20.13
2016-08-28T00:02:35.382Z,20.18
2016-08-28T00:03:36.063Z,20.08
2016-08-28T00:04:35.354Z,20.24
2016-08-28T00:05:35.363Z,20.13
2016-08-28T00:06:35.362Z,20.24
2016-08-28T00:07:35.358Z,20.17
2016-08-28T00:08:35.351Z,20.18
2016-08-28T00:09:35.367Z,20.02
2016-08-28T00:10:35.380Z,20.13
2016-08-28T00:11:35.372Z,20.08
2016-08-28T00:12:35.351Z,20.03
2016-08-28T00:13:35.349Z,20.05
2016-08-28T00:14:35.373Z,20.05
2016-08-28T00:15:36.060Z,19.95
2016-08-28T00:16:35.369Z,20.11
2016-08-28T00:17:35.352Z,20.05
2016-08-28T00:18:35.373Z,19.99
2016-08-28T00:19:35.357Z,20.02
2016-08-28T00:20:35.345Z,20.02
2016-08-28T00:21:35.367Z,20.05
2016-08-28T00:22:35.347Z,19.91
2016-08-28T00:23:35.358Z,19.96
2016-08-28T00:24:35.344Z,19.87
2016-08-28T00:25:35.345Z,19.92
2016-08-28T00:26:35.367Z,19.92
2016-08-28T00:27:35.369Z,19.87
2016-08-28T00:28:35.341Z,19.91
2016-08-28T00:29:36.804Z,19.81
2016-08-28T00:30:36.965Z,19.78
2016-08-28T00:31:35.661Z,19.81
2016-08-28T00:32:37.392Z,19.76
2016-08-28T00:33:35.356Z,19.65
2016-08-28T00:34:35.335Z,19.74
2016-08-28T00:35:35.669Z,19.71
2016-08-28T00:36:35.337Z,19.62
2016-08-28T00:37:35.333Z,19.65
2016-08-28T00:38:36.742Z,19.65
2016-08-28T00:39:36.599Z,19.61
2016-08-28T00:40:37.412Z,19.56
2016-08-28T00:41:36.103Z,19.58
2016-08-28T00:42:36.472Z,19.54
2016-08-28T00:43:35.846Z,19.55
2016-08-28T00:44:35.364Z,19.44
2016-08-28T00:45:35.572Z,19.48
2016-08-28T00:46:35.394Z,19.39
2016-08-28T00:47:35.355Z,19.46
2016-08-28T00:48:35.337Z,19.39
2016-08-28T00:49:35.326Z,19.36
2016-08-28T00:50:35.324Z,19.25
2016-08-28T00:51:35.330Z,19.28
2016-08-28T00:52:35.331Z,19.22
2016-08-28T00:53:35.329Z,19.28
2016-08-28T00:54:35.332Z,19.19
2016-08-28T00:55:35.326Z,19.23
2016-08-28T00:56:35.335Z,19.16
2016-08-28T00:57:35.312Z,19.19
2016-08-28T00:58:35.335Z,19.19
2016-08-28T00:59:35.315Z,19.18
2016-08-28T01:00:35.314Z,19.16
2016-08-28T01:01:35.315Z,19.14
2016-08-28T01:02:35.324Z,19.18
2016-08-28T01:03:35.307Z,19.06
2016-08-28T01:04:35.325Z,19.02
2016-08-28T01:05:35.308Z,19.07
2016-08-28T01:06:35.474Z,18.99
2016-08-28T01:07:36.160Z,18.94
2016-08-28T01:08:50.377Z,18.92
2016-08-28T01:09:35.414Z,18.92
2016-08-28T01:10:35.312Z,18.95
2016-08-28T01:11:35.968Z,18.92
2016-08-28T01:12:35.316Z,19.04
2016-08-28T01:13:35.301Z,18.95
2016-08-28T01:14:35.419Z,18.84
2016-08-28T01:15:50.230Z,18.88
2016-08-28T01:16:35.512Z,18.98
2016-08-28T01:18:50.214Z,18.94
2016-08-28T01:19:35.293Z,18.95
2016-08-28T01:20:35.739Z,18.92
2016-08-28T01:21:35.305Z,18.91
2016-08-28T01:22:35.297Z,18.88
2016-08-28T01:23:35.297Z,18.88
2016-08-28T01:24:35.297Z,18.78
2016-08-28T01:25:35.290Z,18.81
2016-08-28T01:26:35.282Z,18.81
2016-08-28T01:27:35.285Z,18.9
2016-08-28T01:28:35.311Z,18.9
2016-08-28T01:29:35.297Z,18.87
2016-08-28T01:30:35.285Z,18.78
2016-08-28T01:31:35.285Z,18.88
2016-08-28T01:32:35.980Z,18.85
2016-08-28T01:33:35.271Z,18.81
2016-08-28T01:34:35.303Z,18.75
2016-08-28T01:35:35.280Z,18.72
2016-08-28T01:36:35.273Z,18.66
2016-08-28T01:37:35.285Z,18.8
2016-08-28T01:38:35.288Z,18.67
2016-08-28T01:39:35.266Z,18.69
2016-08-28T01:40:35.275Z,18.73
2016-08-28T01:41:35.269Z,18.66
2016-08-28T01:42:35.273Z,18.67
2016-08-28T01:43:35.262Z,18.66
2016-08-28T01:44:35.278Z,18.67
2016-08-28T01:45:35.258Z,18.63
2016-08-28T01:46:35.285Z,18.6
2016-08-28T01:47:35.540Z,18.55
2016-08-28T01:48:36.052Z,18.47
2016-08-28T01:49:35.276Z,18.57
2016-08-28T01:50:36.891Z,18.44
2016-08-28T01:51:35.264Z,18.51
2016-08-28T01:52:35.261Z,18.39
2016-08-28T01:53:35.256Z,18.36
2016-08-28T01:54:35.250Z,18.39
2016-08-28T01:55:35.247Z,18.3
2016-08-28T01:57:35.766Z,18.32
2016-08-28T01:58:36.265Z,18.27
2016-08-28T01:59:35.260Z,18.27
2016-08-28T02:00:35.899Z,18.3
2016-08-28T02:01:35.607Z,18.27
2016-08-28T02:02:35.258Z,18.3
2016-08-28T02:03:35.241Z,18.25
2016-08-28T02:04:35.231Z,18.2
2016-08-28T02:05:35.253Z,18.25
2016-08-28T02:06:35.231Z,18.25
2016-08-28T02:07:35.245Z,18.27
2016-08-28T02:08:35.222Z,18.14
2016-08-28T02:09:35.243Z,18.23
2016-08-28T02:10:35.222Z,18.18
2016-08-28T02:11:35.216Z,18.11
2016-08-28T02:12:35.218Z,18.08
2016-08-28T02:13:35.219Z,18.08
2016-08-28T02:14:35.215Z,18.14
2016-08-28T02:15:35.903Z,18.02
2016-08-28T02:16:35.217Z,18.11
2016-08-28T02:17:35.217Z,18.08
2016-08-28T02:18:35.223Z,18.02
2016-08-28T02:19:35.225Z,18
2016-08-28T02:20:35.215Z,18
2016-08-28T02:21:35.202Z,17.93
2016-08-28T02:22:35.215Z,17.9
2016-08-28T02:23:35.202Z,17.92
2016-08-28T02:24:36.173Z,17.87
2016-08-28T02:25:35.801Z,17.9
2016-08-28T02:26:35.353Z,17.89
2016-08-28T02:27:35.346Z,17.89
2016-08-28T02:28:35.656Z,17.95
2016-08-28T02:29:35.194Z,17.86
2016-08-28T02:30:35.756Z,17.82
2016-08-28T02:31:35.198Z,17.81
2016-08-28T02:32:35.187Z,17.86
2016-08-28T02:33:35.184Z,17.86
2016-08-28T02:35:35.544Z,17.87
2016-08-28T02:36:35.189Z,17.84
2016-08-28T02:37:35.426Z,17.82
2016-08-28T02:38:35.184Z,17.77
2016-08-28T02:39:35.722Z,17.75
2016-08-28T02:40:35.168Z,17.72
2016-08-28T02:41:35.165Z,17.72
2016-08-28T02:42:35.193Z,17.59
2016-08-28T02:43:35.177Z,17.71
2016-08-28T02:44:35.167Z,17.71
2016-08-28T02:45:35.164Z,17.64
2016-08-28T02:46:35.160Z,17.64
2016-08-28T02:47:35.178Z,17.63
2016-08-28T02:48:35.153Z,17.62
2016-08-28T02:49:35.150Z,17.63
2016-08-28T02:50:35.148Z,17.63
2016-08-28T02:51:35.158Z,17.64
2016-08-28T02:52:35.144Z,17.56
2016-08-28T02:53:35.166Z,17.55
2016-08-28T02:54:35.143Z,17.55
2016-08-28T02:55:35.153Z,17.52
2016-08-28T02:56:35.133Z,17.54
2016-08-28T02:57:35.138Z,17.55
2016-08-28T02:58:35.149Z,17.54
2016-08-28T02:59:35.132Z,17.48
2016-08-28T03:00:35.141Z,17.49
2016-08-28T03:01:35.133Z,17.51
2016-08-28T03:02:35.131Z,17.52
2016-08-28T03:03:35.147Z,17.49
2016-08-28T03:04:35.132Z,17.54
2016-08-28T03:05:35.768Z,17.46
2016-08-28T03:06:36.639Z,17.44
2016-08-28T03:07:37.299Z,17.41
2016-08-28T03:08:36.209Z,17.46
2016-08-28T03:09:35.209Z,17.38
2016-08-28T03:10:35.109Z,17.46
2016-08-28T03:11:35.103Z,17.38
2016-08-28T03:12:35.117Z,17.38
2016-08-28T03:13:35.103Z,17.38
2016-08-28T03:16:35.390Z,17.4
2016-08-28T03:17:35.098Z,17.43
2016-08-28T03:18:35.467Z,17.43
2016-08-28T03:19:35.409Z,17.26
2016-08-28T03:20:35.092Z,17.37
2016-08-28T03:21:35.083Z,17.26
2016-08-28T03:22:35.115Z,17.31
2016-08-28T03:23:35.085Z,17.23
2016-08-28T03:24:35.094Z,17.26
2016-08-28T03:25:35.080Z,17.3
2016-08-28T03:26:35.103Z,17.21
2016-08-28T03:27:35.076Z,17.33
2016-08-28T03:28:35.069Z,17.3
2016-08-28T03:29:35.076Z,17.3
2016-08-28T03:30:35.067Z,17.23
2016-08-28T03:31:35.071Z,17.3
2016-08-28T03:32:35.075Z,17.23
2016-08-28T03:33:35.074Z,17.23
2016-08-28T03:34:35.077Z,17.26
2016-08-28T03:35:35.056Z,17.23
2016-08-28T03:36:35.056Z,17.25
2016-08-28T03:37:35.052Z,17.21
2016-08-28T03:38:35.059Z,17.22
2016-08-28T03:39:35.060Z,17.21
2016-08-28T03:40:35.065Z,17.22
2016-08-28T03:41:35.042Z,17.19
2016-08-28T03:42:35.050Z,17.15
2016-08-28T03:43:35.349Z,17.22
2016-08-28T03:44:35.137Z,17.19
2016-08-28T03:45:49.958Z,17.19
2016-08-28T03:46:35.595Z,17.15
2016-08-28T03:47:36.191Z,17.12
2016-08-28T03:48:35.036Z,17.11
2016-08-28T03:49:35.258Z,17.08
2016-08-28T03:50:35.040Z,17.12
2016-08-28T03:51:35.020Z,17.21
2016-08-28T03:52:36.824Z,17.22
2016-08-28T03:53:36.390Z,17.18
2016-08-28T03:54:35.033Z,17.12
2016-08-28T03:55:35.686Z,17.08
2016-08-28T03:56:35.826Z,17.16
2016-08-28T03:57:35.035Z,17.07
2016-08-28T03:58:35.070Z,17.18
2016-08-28T03:59:35.159Z,17.08
2016-08-28T04:00:35.000Z,17.16
2016-08-28T04:01:35.001Z,17.14
2016-08-28T04:02:34.995Z,17.19
2016-08-28T04:03:35.018Z,17.16
2016-08-28T04:04:34.994Z,17.16
2016-08-28T04:05:34.998Z,17.08
2016-08-28T04:06:34.999Z,17.08
2016-08-28T04:07:35.012Z,17.19
2016-08-28T04:08:34.994Z,17.06
2016-08-28T04:09:34.999Z,17.03
2016-08-28T04:10:34.974Z,17.03
2016-08-28T04:11:34.980Z,17.03
2016-08-28T04:12:34.988Z,17.06
2016-08-28T04:13:34.984Z,17.04
2016-08-28T04:14:34.969Z,17.14
2016-08-28T04:15:34.975Z,17.21
2016-08-28T04:16:34.959Z,17.08
2016-08-28T04:17:34.977Z,17.16
2016-08-28T04:18:34.956Z,17.14
2016-08-28T04:19:34.964Z,17.16
2016-08-28T04:20:34.961Z,17.07
2016-08-28T04:21:34.961Z,17.07
2016-08-28T04:22:34.964Z,17.12
2016-08-28T04:23:35.899Z,17.08
2016-08-28T04:25:36.229Z,17.16
2016-08-28T04:26:36.144Z,17.14
2016-08-28T04:27:35.347Z,17.22
2016-08-28T04:28:35.563Z,17.31
2016-08-28T04:29:35.368Z,17.31
2016-08-28T04:30:34.947Z,17.4
2016-08-28T04:31:34.925Z,17.54
2016-08-28T04:33:36.493Z,17.64
2016-08-28T04:34:37.912Z,17.81
2016-08-28T04:35:34.932Z,17.89
2016-08-28T04:36:35.833Z,17.89
2016-08-28T04:37:34.945Z,18.12
2016-08-28T04:38:34.915Z,18.18
2016-08-28T04:39:34.922Z,18.41
2016-08-28T04:40:34.925Z,18.5
2016-08-28T04:41:34.913Z,18.65
2016-08-28T04:42:34.910Z,18.9
2016-08-28T04:43:34.905Z,19
2016-08-28T04:44:34.917Z,19.26
2016-08-28T04:45:34.906Z,19.48
2016-08-28T04:46:34.919Z,19.61
2016-08-28T04:47:34.924Z,19.83
2016-08-28T04:48:34.908Z,19.95
2016-08-28T04:49:34.904Z,20.11
2016-08-28T04:50:34.899Z,20.38
2016-08-28T04:51:34.914Z,20.58
2016-08-28T04:52:34.901Z,20.79
2016-08-28T04:53:34.930Z,21.04
2016-08-28T04:54:34.903Z,21.21
2016-08-28T04:55:34.908Z,21.43
2016-08-28T04:56:34.905Z,21.71
2016-08-28T04:57:34.918Z,21.86
2016-08-28T04:58:34.903Z,22.14
2016-08-28T04:59:34.925Z,22.39
2016-08-28T05:00:34.920Z,22.6
2016-08-28T05:01:35.868Z,22.91
2016-08-28T05:02:35.816Z,22.98
2016-08-28T05:03:35.014Z,23.2
2016-08-28T05:04:34.919Z,23.54
2016-08-28T05:05:34.917Z,23.78
2016-08-28T05:06:34.920Z,24.16
2016-08-28T05:07:34.949Z,24.27
2016-08-28T05:08:34.936Z,24.52
2016-08-28T05:09:34.934Z,24.78
2016-08-28T05:10:35.236Z,24.98
2016-08-28T05:11:35.290Z,25.24
2016-08-28T05:12:35.541Z,25.39
2016-08-28T05:13:49.859Z,25.7
2016-08-28T05:14:34.956Z,25.79
2016-08-28T05:15:34.944Z,25.99
2016-08-28T05:16:34.972Z,26.1
2016-08-28T05:17:34.959Z,26.37
2016-08-28T05:18:34.961Z,26.58
2016-08-28T05:19:34.976Z,26.81
2016-08-28T05:20:34.969Z,26.97
2016-08-28T05:21:34.977Z,27.13
2016-08-28T05:22:34.991Z,27.29
2016-08-28T05:23:34.989Z,27.55
2016-08-28T05:24:35.028Z,27.74
2016-08-28T05:25:35.005Z,27.81
2016-08-28T05:26:35.026Z,28.02
2016-08-28T05:27:35.019Z,28.24
2016-08-28T05:28:35.038Z,28.41
2016-08-28T05:29:35.064Z,28.58
2016-08-28T05:30:35.036Z,28.68
2016-08-28T05:31:35.041Z,28.93
2016-08-28T05:32:35.074Z,29.08
2016-08-28T05:33:35.056Z,29.15
2016-08-28T05:34:35.065Z,29.26
2016-08-28T05:35:35.078Z,29.37
2016-08-28T05:36:35.089Z,29.57
2016-08-28T05:37:35.095Z,29.64
2016-08-28T05:38:35.109Z,29.8
2016-08-28T05:39:35.106Z,29.9
2016-08-28T05:40:35.129Z,30.16
2016-08-28T05:42:35.945Z,30.42
2016-08-28T05:43:37.678Z,30.51
2016-08-28T05:44:37.556Z,30.58
2016-08-28T05:45:36.191Z,30.84
2016-08-28T05:46:35.192Z,30.95
2016-08-28T05:47:35.175Z,31.1
2016-08-28T05:48:35.179Z,31.21
2016-08-28T05:49:35.193Z,31.32
2016-08-28T05:50:36.722Z,31.38
2016-08-28T05:52:35.578Z,31.76
2016-08-28T05:53:35.697Z,31.76
2016-08-28T05:54:35.252Z,32.03
2016-08-28T05:55:36.065Z,32.07
2016-08-28T05:56:35.264Z,32.19
2016-08-28T05:57:35.284Z,32.29
2016-08-28T05:58:35.291Z,32.23
2016-08-28T05:59:35.300Z,32.25
2016-08-28T06:00:35.311Z,32.38
2016-08-28T06:01:35.310Z,32.44
2016-08-28T06:02:35.328Z,32.51
2016-08-28T06:03:35.340Z,32.44
2016-08-28T06:04:35.354Z,32.55
2016-08-28T06:05:35.356Z,32.55
2016-08-28T06:06:35.379Z,32.66
2016-08-28T06:07:35.374Z,32.77
2016-08-28T06:08:35.390Z,32.87
2016-08-28T06:09:35.409Z,32.94
2016-08-28T06:10:35.412Z,33
2016-08-28T06:11:35.443Z,33
2016-08-28T06:12:36.139Z,32.92
2016-08-28T06:13:35.452Z,32.92
2016-08-28T06:14:35.461Z,32.79
2016-08-28T06:15:35.488Z,32.72
2016-08-28T06:16:35.478Z,32.69
2016-08-28T06:17:35.509Z,32.65
2016-08-28T06:18:35.498Z,32.69
2016-08-28T06:19:37.686Z,32.63
2016-08-28T06:20:35.575Z,32.72
2016-08-28T06:21:35.999Z,32.7
2016-08-28T06:22:35.545Z,32.75
2016-08-28T06:23:35.571Z,32.78
2016-08-28T06:24:35.569Z,32.92
2016-08-28T06:25:37.110Z,33.07
2016-08-28T06:26:35.595Z,33.18
2016-08-28T06:27:35.612Z,33.32
2016-08-28T06:28:36.762Z,33.32
2016-08-28T06:29:36.750Z,33.41
2016-08-28T06:30:36.245Z,33.44
2016-08-28T06:31:38.896Z,33.57
2016-08-28T06:34:36.089Z,33.76
2016-08-28T06:37:45.002Z,33.87
2016-08-28T06:38:35.737Z,33.75
2016-08-28T06:39:35.737Z,33.78
2016-08-28T06:40:35.758Z,33.82
2016-08-28T06:41:35.766Z,33.72
2016-08-28T06:42:35.776Z,33.75
2016-08-28T06:43:35.788Z,33.81
2016-08-28T06:44:35.823Z,33.82
2016-08-28T06:45:35.813Z,33.87
2016-08-28T06:46:35.821Z,33.93
2016-08-28T06:47:35.835Z,34.05
2016-08-28T06:48:35.857Z,34.06
2016-08-28T06:49:35.864Z,34.24
2016-08-28T06:50:35.895Z,34.28
2016-08-28T06:51:35.882Z,34.28
2016-08-28T06:52:35.923Z,34.42
2016-08-28T06:53:35.912Z,34.39
2016-08-28T06:54:36.614Z,34.28
2016-08-28T06:55:35.944Z,34.35
2016-08-28T06:56:35.951Z,34.42
2016-08-28T06:57:35.960Z,34.43
2016-08-28T06:58:35.999Z,34.4
2016-08-28T07:00:36.263Z,34.35
2016-08-28T07:01:36.919Z,34.4
2016-08-28T07:02:36.027Z,34.32
2016-08-28T07:03:37.517Z,34.32
2016-08-28T07:04:36.305Z,34.3
2016-08-28T07:05:36.866Z,34.19
2016-08-28T07:06:36.103Z,34.13
2016-08-28T07:07:36.089Z,34.13
2016-08-28T07:08:37.316Z,34.08
2016-08-28T07:09:37.651Z,34.15
2016-08-28T07:10:38.802Z,34.09
2016-08-28T07:11:36.198Z,34.19
2016-08-28T07:12:36.585Z,34.17
2016-08-28T07:13:36.176Z,34.22
2016-08-28T07:14:36.372Z,34.25
2016-08-28T07:15:36.289Z,34.21
2016-08-28T07:16:36.203Z,34.19
2016-08-28T07:17:36.216Z,34.17
2016-08-28T07:18:36.242Z,34.19
2016-08-28T07:19:36.263Z,34.19
2016-08-28T07:20:36.257Z,34.09
2016-08-28T07:21:36.270Z,34.06
2016-08-28T07:22:36.291Z,34.13
2016-08-28T07:23:36.315Z,34.13
2016-08-28T07:24:36.318Z,34.13
2016-08-28T07:25:36.341Z,34
2016-08-28T07:26:36.342Z,33.94
2016-08-28T07:27:36.370Z,33.93
2016-08-28T07:28:36.365Z,33.91
2016-08-28T07:29:36.386Z,33.84
2016-08-28T07:30:36.392Z,33.9
2016-08-28T07:31:36.422Z,33.94
2016-08-28T07:32:36.421Z,33.9
2016-08-28T07:33:36.447Z,33.95
2016-08-28T07:34:36.462Z,33.79
2016-08-28T07:35:36.477Z,33.76
2016-08-28T07:36:36.497Z,33.88
2016-08-28T07:38:37.052Z,33.76
2016-08-28T07:39:36.891Z,33.6
2016-08-28T07:40:36.541Z,33.6
2016-08-28T07:41:36.553Z,33.63
2016-08-28T07:42:36.556Z,33.49
2016-08-28T07:43:36.579Z,33.31
2016-08-28T07:44:36.600Z,33.32
2016-08-28T07:45:36.593Z,33.16
2016-08-28T07:46:36.810Z,33.19
2016-08-28T07:47:37.490Z,33.11
2016-08-28T07:48:36.634Z,33.09
2016-08-28T07:49:51.605Z,32.93
2016-08-28T07:50:36.679Z,32.85
2016-08-28T07:51:36.705Z,32.74
2016-08-28T07:52:36.693Z,32.72
2016-08-28T07:53:36.715Z,32.55
2016-08-28T07:54:36.750Z,32.59
2016-08-28T07:55:36.751Z,32.55
2016-08-28T07:56:37.448Z,32.5
2016-08-28T07:57:36.771Z,32.56
2016-08-28T07:58:36.776Z,32.55
2016-08-28T07:59:36.798Z,32.52
2016-08-28T08:00:36.807Z,32.52
2016-08-28T08:01:36.819Z,32.52
2016-08-28T08:02:36.847Z,32.47
2016-08-28T08:03:37.543Z,32.51
2016-08-28T08:04:36.874Z,32.52
2016-08-28T08:05:36.869Z,32.37
2016-08-28T08:06:36.887Z,32.29
2016-08-28T08:07:36.904Z,32.25
2016-08-28T08:08:36.915Z,32.22
2016-08-28T08:09:36.984Z,32.38
2016-08-28T08:10:36.956Z,32.21
2016-08-28T08:11:36.957Z,32.35
2016-08-28T08:12:36.969Z,32.3
2016-08-28T08:13:36.991Z,32.25
2016-08-28T08:14:36.992Z,32.18
2016-08-28T08:15:37.004Z,32.07
2016-08-28T08:16:37.031Z,31.95
2016-08-28T08:17:37.036Z,31.84
2016-08-28T08:18:37.065Z,31.73
2016-08-28T08:19:37.059Z,31.76
2016-08-28T08:20:37.118Z,31.72
2016-08-28T08:21:37.106Z,31.78
2016-08-28T08:22:37.111Z,31.69
2016-08-28T08:23:37.115Z,31.66
2016-08-28T08:24:37.157Z,31.61
2016-08-28T08:25:37.167Z,31.41
2016-08-28T08:26:37.173Z,31.16
2016-08-28T08:27:37.173Z,30.98
2016-08-28T08:28:37.183Z,30.88
2016-08-28T08:29:37.215Z,30.73
2016-08-28T08:30:37.209Z,30.49
2016-08-28T08:31:37.232Z,30.46
2016-08-28T08:32:37.232Z,30.27
2016-08-28T08:33:37.252Z,30.17
2016-08-28T08:34:37.252Z,30.07
2016-08-28T08:35:37.295Z,30.08
2016-08-28T08:36:37.277Z,29.92
2016-08-28T08:37:37.297Z,29.85
2016-08-28T08:38:37.300Z,29.7
2016-08-28T08:39:37.306Z,29.58
2016-08-28T08:40:37.318Z,29.57
2016-08-28T08:41:37.332Z,29.52
2016-08-28T08:42:37.351Z,29.43
2016-08-28T08:43:37.341Z,29.37
2016-08-28T08:44:37.352Z,29.28
2016-08-28T08:45:37.395Z,29.3
2016-08-28T08:46:37.383Z,29.21
2016-08-28T08:47:37.395Z,29.15
2016-08-28T08:48:37.392Z,29.09
2016-08-28T08:49:37.405Z,29
2016-08-28T08:50:37.401Z,29.02
2016-08-28T08:51:37.433Z,29.02
2016-08-28T08:52:37.419Z,28.9
2016-08-28T08:53:37.438Z,28.83
2016-08-28T08:54:37.446Z,28.89
2016-08-28T08:55:37.763Z,28.95
2016-08-28T08:56:38.051Z,28.86
2016-08-28T08:57:37.760Z,28.85
2016-08-28T08:58:37.476Z,28.77
2016-08-28T08:59:37.728Z,28.85
2016-08-28T09:00:37.960Z,28.83
2016-08-28T09:01:37.490Z,28.74
2016-08-28T09:02:37.503Z,28.81
2016-08-28T09:03:37.529Z,28.77
2016-08-28T09:04:38.007Z,28.85
2016-08-28T09:05:37.925Z,28.86
2016-08-28T09:06:37.769Z,28.89
2016-08-28T09:07:38.235Z,28.95
2016-08-28T09:08:37.539Z,28.92
2016-08-28T09:09:38.599Z,28.9
2016-08-28T09:10:37.897Z,28.93
2016-08-28T09:11:37.590Z,28.9
2016-08-28T09:12:37.564Z,28.88
2016-08-28T09:13:37.569Z,28.93
2016-08-28T09:14:37.583Z,28.96
2016-08-28T09:15:37.598Z,28.93
2016-08-28T09:16:37.590Z,28.96
2016-08-28T09:17:37.608Z,28.95
2016-08-28T09:18:37.611Z,29
2016-08-28T09:19:37.604Z,28.92
2016-08-28T09:20:37.617Z,28.96
2016-08-28T09:21:37.621Z,29.06
2016-08-28T09:22:37.654Z,29
2016-08-28T09:23:37.635Z,29.12
2016-08-28T09:24:37.639Z,29.15
2016-08-28T09:25:37.649Z,29.15
2016-08-28T09:26:37.648Z,29.06
2016-08-28T09:27:37.660Z,29.08
2016-08-28T09:28:37.686Z,29.16
2016-08-28T09:29:37.672Z,29.14
2016-08-28T09:30:37.678Z,29.15
2016-08-28T09:31:37.694Z,29.24
2016-08-28T09:32:37.688Z,29.27
2016-08-28T09:33:37.693Z,29.26
2016-08-28T09:34:37.715Z,29.3
2016-08-28T09:35:37.713Z,29.36
2016-08-28T09:36:37.729Z,29.43
2016-08-28T09:37:37.722Z,29.45
2016-08-28T09:38:37.739Z,29.48
2016-08-28T09:39:37.741Z,29.43
2016-08-28T09:40:37.746Z,29.48
2016-08-28T09:41:37.754Z,29.53
2016-08-28T09:42:37.778Z,29.51
2016-08-28T09:43:37.762Z,29.6
2016-08-28T09:44:37.775Z,29.6
2016-08-28T09:45:37.786Z,29.58
2016-08-28T09:46:37.794Z,29.58
2016-08-28T09:47:37.792Z,29.64
2016-08-28T09:48:37.797Z,29.68
2016-08-28T09:49:37.811Z,29.7
2016-08-28T09:50:37.813Z,29.68
2016-08-28T09:51:37.834Z,29.74
2016-08-28T09:52:37.825Z,29.74
2016-08-28T09:53:37.841Z,29.76
2016-08-28T09:54:37.839Z,29.83
2016-08-28T09:55:37.849Z,29.87
2016-08-28T09:56:37.866Z,29.85
2016-08-28T09:57:37.856Z,29.89
2016-08-28T09:58:37.871Z,30
2016-08-28T09:59:37.871Z,30.1
2016-08-28T10:00:37.894Z,29.98
2016-08-28T10:01:37.908Z,30
2016-08-28T10:02:37.890Z,30.08
2016-08-28T10:03:37.898Z,30.13
2016-08-28T10:04:37.900Z,30.08
2016-08-28T10:05:37.936Z,30.11
2016-08-28T10:06:37.926Z,30.13
2016-08-28T10:07:37.937Z,30.26
2016-08-28T10:08:37.932Z,30.24
2016-08-28T10:09:37.949Z,30.23
2016-08-28T10:10:38.048Z,30.26
2016-08-28T10:11:37.948Z,30.37
2016-08-28T10:12:37.974Z,30.31
2016-08-28T10:13:38.347Z,30.34
2016-08-28T10:14:38.735Z,30.37
2016-08-28T10:15:53.670Z,30.39
2016-08-28T10:16:38.543Z,30.47
2016-08-28T10:17:37.996Z,30.53
2016-08-28T10:18:38.394Z,30.46
2016-08-28T10:19:39.632Z,30.47
2016-08-28T10:20:38.585Z,30.64
2016-08-28T10:21:38.222Z,30.61
2016-08-28T10:22:38.488Z,30.6
2016-08-28T10:23:38.658Z,30.6
2016-08-28T10:24:38.122Z,30.75
2016-08-28T10:25:38.755Z,30.77
2016-08-28T10:26:38.165Z,30.86
2016-08-28T10:27:38.890Z,30.92
2016-08-28T10:28:38.257Z,30.97
2016-08-28T10:29:39.431Z,31.1
2016-08-28T10:30:38.093Z,31.07
2016-08-28T10:31:38.095Z,31.14
2016-08-28T10:32:38.145Z,31.23
2016-08-28T10:33:38.609Z,31.26
2016-08-28T10:34:38.277Z,31.38
2016-08-28T10:35:38.121Z,31.41
2016-08-28T10:36:38.129Z,31.36
2016-08-28T10:37:38.147Z,31.41
2016-08-28T10:38:38.169Z,31.51
2016-08-28T10:39:38.156Z,31.62
2016-08-28T10:40:38.161Z,31.63
2016-08-28T10:41:38.172Z,31.7
2016-08-28T10:42:38.191Z,31.68
2016-08-28T10:43:38.192Z,31.7
2016-08-28T10:44:38.198Z,31.73
2016-08-28T10:45:38.202Z,31.73
2016-08-28T10:46:38.214Z,31.78
2016-08-28T10:47:38.227Z,31.84
2016-08-28T10:48:38.262Z,31.95
2016-08-28T10:49:38.241Z,31.96
2016-08-28T10:50:38.254Z,32
2016-08-28T10:51:38.256Z,32.03
2016-08-28T10:52:38.263Z,32.03
2016-08-28T10:53:38.308Z,32.18
2016-08-28T10:54:38.274Z,32.22
2016-08-28T10:55:38.289Z,32.15
2016-08-28T10:56:38.299Z,32.18
2016-08-28T10:57:38.310Z,32.18
2016-08-28T10:58:38.310Z,32.15
2016-08-28T10:59:38.322Z,32.18
2016-08-28T11:00:38.342Z,32.13
2016-08-28T11:01:38.339Z,32.14
2016-08-28T11:02:38.368Z,32.14
2016-08-28T11:03:38.359Z,32.25
2016-08-28T11:04:38.369Z,32.23
2016-08-28T11:05:38.365Z,32.3
2016-08-28T11:06:38.374Z,32.38
2016-08-28T11:07:38.388Z,32.38
2016-08-28T11:08:38.411Z,32.48
2016-08-28T11:09:38.410Z,32.44
2016-08-28T11:10:38.519Z,32.5
2016-08-28T11:11:38.418Z,32.52
2016-08-28T11:12:38.435Z,32.52
2016-08-28T11:13:38.444Z,32.52
2016-08-28T11:14:38.454Z,32.52
2016-08-28T11:15:38.449Z,32.75
2016-08-28T11:16:38.475Z,32.65
2016-08-28T11:17:38.470Z,32.77
2016-08-28T11:18:38.492Z,32.87
2016-08-28T11:19:38.503Z,32.84
2016-08-28T11:20:38.510Z,32.89
2016-08-28T11:21:38.502Z,32.96
2016-08-28T11:22:38.523Z,32.92
2016-08-28T11:23:38.516Z,32.96
2016-08-28T11:24:38.557Z,33.04
2016-08-28T11:25:38.546Z,33.06
2016-08-28T11:26:38.551Z,33.03
2016-08-28T11:27:38.555Z,33.04
2016-08-28T11:28:38.562Z,33.06
2016-08-28T11:29:38.582Z,33.14
2016-08-28T11:30:38.582Z,33.14
2016-08-28T11:31:38.965Z,33.12
2016-08-28T11:32:39.249Z,33.14
2016-08-28T11:33:38.608Z,33.16
2016-08-28T11:34:38.614Z,33.26
2016-08-28T11:35:39.388Z,33.34
2016-08-28T11:36:38.948Z,33.32
2016-08-28T11:37:38.682Z,33.37
2016-08-28T11:38:39.861Z,33.34
2016-08-28T11:39:39.669Z,33.31
2016-08-28T11:40:39.957Z,33.34
2016-08-28T11:41:38.785Z,33.38
2016-08-28T11:42:39.918Z,33.42
2016-08-28T11:43:39.400Z,33.37
2016-08-28T11:44:39.298Z,33.47
2016-08-28T11:45:39.421Z,33.53
2016-08-28T11:46:38.881Z,33.49
2016-08-28T11:47:39.005Z,33.57
2016-08-28T11:48:38.734Z,33.61
2016-08-28T11:49:38.754Z,33.65
2016-08-28T11:50:38.752Z,33.76
2016-08-28T11:51:38.755Z,33.72
2016-08-28T11:52:38.785Z,33.73
2016-08-28T11:53:38.775Z,33.76
2016-08-28T11:54:38.797Z,33.88
2016-08-28T11:55:38.802Z,33.84
2016-08-28T11:56:38.803Z,33.94
2016-08-28T11:57:38.816Z,33.94
2016-08-28T11:58:38.843Z,34.02
2016-08-28T11:59:38.829Z,34.06
2016-08-28T12:00:38.859Z,34.13
2016-08-28T12:01:38.849Z,34.17
2016-08-28T12:02:38.864Z,34.15
2016-08-28T12:03:38.874Z,34.19
2016-08-28T12:04:38.894Z,34.22
2016-08-28T12:05:38.892Z,34.19
2016-08-28T12:06:38.902Z,34.24
2016-08-28T12:07:38.909Z,34.22
2016-08-28T12:08:38.924Z,34.24
2016-08-28T12:09:38.933Z,34.34
2016-08-28T12:10:38.951Z,34.35
2016-08-28T12:11:38.947Z,34.4
2016-08-28T12:12:38.949Z,34.37
2016-08-28T12:13:38.960Z,34.5
2016-08-28T12:14:38.981Z,34.47
2016-08-28T12:15:38.978Z,34.53
2016-08-28T12:16:39.010Z,34.46
2016-08-28T12:17:38.997Z,34.46
2016-08-28T12:18:39.027Z,34.54
2016-08-28T12:19:39.019Z,34.59
2016-08-28T12:20:39.036Z,34.54
2016-08-28T12:21:39.045Z,34.58
2016-08-28T12:22:39.066Z,34.65
2016-08-28T12:23:39.054Z,34.73
2016-08-28T12:24:39.078Z,34.85
2016-08-28T12:25:39.077Z,34.87
2016-08-28T12:26:39.080Z,34.96
2016-08-28T12:27:39.093Z,34.91
2016-08-28T12:28:39.106Z,35.03
2016-08-28T12:29:39.116Z,35.04
2016-08-28T12:30:39.124Z,35.09
2016-08-28T12:31:39.128Z,35.04
2016-08-28T12:32:39.169Z,35.02
2016-08-28T12:33:39.156Z,35.14
2016-08-28T12:34:39.183Z,35.11
2016-08-28T12:35:39.171Z,35.15
2016-08-28T12:36:39.190Z,35.16
2016-08-28T12:37:39.190Z,35.1
2016-08-28T12:38:39.226Z,35.23
2016-08-28T12:39:39.226Z,35.29
2016-08-28T12:40:39.229Z,35.31
2016-08-28T12:41:39.229Z,35.29
2016-08-28T12:42:39.265Z,35.45
2016-08-28T12:43:39.245Z,35.44
2016-08-28T12:44:39.259Z,35.45
2016-08-28T12:45:39.268Z,35.48
2016-08-28T12:46:39.282Z,35.52
2016-08-28T12:47:39.287Z,35.45
2016-08-28T12:48:39.299Z,35.55
2016-08-28T12:49:39.957Z,35.48
2016-08-28T12:50:40.469Z,35.48
2016-08-28T12:51:39.328Z,35.65
2016-08-28T12:52:39.348Z,35.63
2016-08-28T12:53:40.848Z,35.55
2016-08-28T12:54:40.881Z,35.58
2016-08-28T12:55:40.895Z,35.68
2016-08-28T12:56:40.744Z,35.55
2016-08-28T12:57:39.445Z,35.59
2016-08-28T12:58:40.724Z,35.66
2016-08-28T12:59:40.180Z,35.58
2016-08-28T13:00:39.830Z,35.53
2016-08-28T13:01:39.430Z,35.68
2016-08-28T13:02:40.288Z,35.6
2016-08-28T13:04:39.524Z,35.65
2016-08-28T13:05:39.467Z,35.65
2016-08-28T13:06:40.007Z,35.62
2016-08-28T13:07:40.204Z,35.72
2016-08-28T13:08:39.808Z,35.65
2016-08-28T13:09:39.506Z,35.6
2016-08-28T13:10:39.572Z,35.68
2016-08-28T13:11:39.544Z,35.63
2016-08-28T13:12:39.560Z,35.62